Aviation Digital Data Service (ADDS)

Output produced by TAFs form (2247 UTC 28 November 2014)
found at http://aviationweather.gov/adds/tafs/
 
KTEX 282044Z 2821/2918 26008KT P6SM SCT200 
     TEMPO 2821/2823 26009G17KT 
     FM290000 12007KT P6SM SKC